createdAt,value
2022-10-31T00:01:40.527Z,3.30
2022-10-31T00:04:27.573Z,3.10
2022-10-31T00:07:14.636Z,3.13
2022-10-31T00:10:01.812Z,3.72
2022-10-31T00:12:48.901Z,3.20
2022-10-31T00:15:37.940Z,2.80
2022-10-31T00:18:25.042Z,3.10
2022-10-31T00:21:12.222Z,3.42
2022-10-31T00:24:00.609Z,3.97
2022-10-31T00:26:47.625Z,3.10
2022-10-31T00:29:34.754Z,4.00
2022-10-31T00:32:21.815Z,3.97
2022-10-31T00:35:09.109Z,3.33
2022-10-31T00:37:56.344Z,3.28
2022-10-31T00:40:43.406Z,3.35
2022-10-31T00:43:30.490Z,3.20
2022-10-31T00:46:17.703Z,3.17
2022-10-31T00:49:04.717Z,3.75
2022-10-31T00:51:51.949Z,3.63
2022-10-31T00:54:38.987Z,3.47
2022-10-31T00:57:26.517Z,3.50
2022-10-31T01:00:14.237Z,4.38
2022-10-31T01:03:02.279Z,4.03
2022-10-31T01:06:05.535Z,4.47
2022-10-31T01:08:53.396Z,4.68
2022-10-31T01:11:40.448Z,3.80
2022-10-31T01:14:29.062Z,4.38
2022-10-31T01:17:18.134Z,4.70
2022-10-31T01:20:15.595Z,4.78
2022-10-31T01:23:02.625Z,5.05
2022-10-31T01:25:49.986Z,5.25
2022-10-31T01:28:39.291Z,4.80
2022-10-31T01:31:31.362Z,4.63
2022-10-31T01:34:18.795Z,4.65
2022-10-31T01:37:05.902Z,4.57
2022-10-31T01:39:53.047Z,4.90
2022-10-31T01:42:41.059Z,5.07
2022-10-31T01:45:28.184Z,5.40
2022-10-31T01:48:17.235Z,5.57
2022-10-31T01:51:06.125Z,5.40
2022-10-31T01:53:59.541Z,5.10
2022-10-31T01:56:51.549Z,5.00
2022-10-31T01:59:42.998Z,5.65
2022-10-31T02:02:32.737Z,5.47
2022-10-31T02:05:25.172Z,5.05
2022-10-31T02:08:18.067Z,5.53
2022-10-31T02:11:10.518Z,5.03
2022-10-31T02:14:00.251Z,5.30
2022-10-31T02:16:47.455Z,5.45
2022-10-31T02:19:52.741Z,5.30
2022-10-31T02:23:21.578Z,4.75
2022-10-31T02:26:24.776Z,5.35
2022-10-31T02:29:24.128Z,5.05
2022-10-31T02:32:26.864Z,4.60
2022-10-31T02:35:48.707Z,4.70
2022-10-31T02:38:47.990Z,4.93
2022-10-31T02:42:07.033Z,5.35
2022-10-31T02:45:03.351Z,4.18
2022-10-31T02:47:54.602Z,4.30
2022-10-31T02:50:47.700Z,4.18
2022-10-31T02:53:35.884Z,4.00
2022-10-31T02:56:23.101Z,4.13
2022-10-31T02:59:10.168Z,3.90
2022-10-31T03:02:12.752Z,3.40
2022-10-31T03:05:25.178Z,4.10
2022-10-31T03:08:27.576Z,3.83
2022-10-31T03:11:14.852Z,3.55
2022-10-31T03:14:10.128Z,3.55
2022-10-31T03:17:02.740Z,3.53
2022-10-31T03:19:55.263Z,3.28
2022-10-31T03:22:43.996Z,3.80
2022-10-31T03:25:33.883Z,3.88
2022-10-31T03:28:27.006Z,3.50
2022-10-31T03:31:19.378Z,3.90
2022-10-31T03:34:09.385Z,3.45
2022-10-31T03:37:00.884Z,4.18
2022-10-31T03:39:50.242Z,3.85
2022-10-31T03:42:41.497Z,4.35
2022-10-31T03:45:31.213Z,4.85
2022-10-31T03:48:21.381Z,4.88
2022-10-31T03:51:21.762Z,4.53
2022-10-31T03:54:47.462Z,5.15
2022-10-31T03:57:44.682Z,5.03
2022-10-31T04:00:35.057Z,5.65
2022-10-31T04:03:36.778Z,5.15
2022-10-31T04:06:25.759Z,4.70
2022-10-31T04:09:14.497Z,5.07
2022-10-31T04:12:03.777Z,5.63
2022-10-31T04:15:04.648Z,5.75
2022-10-31T04:17:54.801Z,5.45
2022-10-31T04:20:42.812Z,5.63
2022-10-31T04:23:32.407Z,6.05
2022-10-31T04:26:20.831Z,5.85
2022-10-31T04:29:08.217Z,5.60
2022-10-31T04:31:55.296Z,5.88
2022-10-31T04:34:42.358Z,5.45
2022-10-31T04:37:29.420Z,5.93
2022-10-31T04:40:16.668Z,6.22
2022-10-31T04:43:15.895Z,5.60
2022-10-31T04:46:05.177Z,6.38
2022-10-31T04:48:52.702Z,6.35
2022-10-31T04:51:39.796Z,6.85
2022-10-31T04:54:27.026Z,5.93
2022-10-31T04:57:32.573Z,5.53
2022-10-31T05:00:23.536Z,5.75
2022-10-31T05:03:11.528Z,5.90
2022-10-31T05:05:58.798Z,5.60
2022-10-31T05:08:46.007Z,4.75
2022-10-31T05:11:33.311Z,6.03
2022-10-31T05:14:31.039Z,6.28
2022-10-31T05:17:36.671Z,6.05
2022-10-31T05:20:59.285Z,6.18
2022-10-31T05:23:53.157Z,5.80
2022-10-31T05:26:42.598Z,6.15
2022-10-31T05:29:34.206Z,5.70
2022-10-31T05:32:21.917Z,6.05
2022-10-31T05:35:32.899Z,5.80
2022-10-31T05:38:38.745Z,6.18
2022-10-31T05:41:32.622Z,6.50
2022-10-31T05:44:26.661Z,6.18
2022-10-31T05:47:39.883Z,6.78
2022-10-31T05:50:53.182Z,6.78
2022-10-31T05:53:40.490Z,7.65
2022-10-31T05:56:27.840Z,8.38
2022-10-31T05:59:15.287Z,6.45
2022-10-31T06:02:02.614Z,6.07
2022-10-31T06:05:13.992Z,7.00
2022-10-31T06:08:02.394Z,6.82
2022-10-31T06:10:50.866Z,6.50
2022-10-31T06:13:45.160Z,6.38
2022-10-31T06:16:39.223Z,6.82
2022-10-31T06:20:05.643Z,6.55
2022-10-31T06:22:57.743Z,7.22
2022-10-31T06:25:50.205Z,7.70
2022-10-31T06:28:37.703Z,7.45
2022-10-31T06:31:38.137Z,8.27
2022-10-31T06:34:25.209Z,8.90
2022-10-31T06:37:13.175Z,9.70
2022-10-31T06:40:03.712Z,10.20
2022-10-31T06:43:01.355Z,9.23
2022-10-31T06:45:49.799Z,9.90
2022-10-31T06:48:51.526Z,8.52
2022-10-31T06:51:56.525Z,8.50
2022-10-31T06:54:43.944Z,8.48
2022-10-31T06:57:30.978Z,8.20
2022-10-31T07:00:18.473Z,8.07
2022-10-31T07:03:13.618Z,7.75
2022-10-31T07:06:00.938Z,7.95
2022-10-31T07:08:48.633Z,7.30
2022-10-31T07:11:35.932Z,6.97
2022-10-31T07:14:23.230Z,6.70
2022-10-31T07:17:11.348Z,6.72
2022-10-31T07:20:01.905Z,6.13
2022-10-31T07:22:50.859Z,6.10
2022-10-31T07:25:40.542Z,5.72
2022-10-31T07:28:31.995Z,6.40
2022-10-31T07:31:21.356Z,5.80
2022-10-31T07:34:08.575Z,5.47
2022-10-31T07:36:55.585Z,5.90
2022-10-31T07:39:43.063Z,5.38
2022-10-31T07:42:30.378Z,5.95
2022-10-31T07:45:20.054Z,8.15
2022-10-31T07:48:30.148Z,5.78
2022-10-31T07:51:35.584Z,5.88
2022-10-31T07:54:54.863Z,5.10
2022-10-31T07:57:44.344Z,5.40
2022-10-31T08:00:36.971Z,4.43
2022-10-31T08:03:24.333Z,5.20
2022-10-31T08:06:30.313Z,4.65
2022-10-31T08:09:30.760Z,4.28
2022-10-31T08:12:22.461Z,5.85
2022-10-31T08:15:10.029Z,3.60
2022-10-31T08:17:58.329Z,3.45
2022-10-31T08:20:46.091Z,3.63
2022-10-31T08:23:35.883Z,3.75
2022-10-31T08:26:23.598Z,4.78
2022-10-31T08:29:14.833Z,5.20
2022-10-31T08:32:02.980Z,5.28
2022-10-31T08:35:19.213Z,4.18
2022-10-31T08:38:25.306Z,4.80
2022-10-31T08:41:12.897Z,5.10
2022-10-31T08:44:00.991Z,4.57
2022-10-31T08:46:48.261Z,3.90
2022-10-31T08:49:35.520Z,3.78
2022-10-31T08:52:38.550Z,3.88
2022-10-31T08:55:36.926Z,3.20
2022-10-31T08:58:40.537Z,3.22
2022-10-31T09:01:29.967Z,2.63
2022-10-31T09:04:17.367Z,3.15
2022-10-31T09:07:21.219Z,2.75
2022-10-31T09:10:09.000Z,3.03
2022-10-31T09:13:07.507Z,2.83
2022-10-31T09:15:54.725Z,4.03
2022-10-31T09:18:44.896Z,3.35
2022-10-31T09:21:32.115Z,3.17
2022-10-31T09:24:19.825Z,3.33
2022-10-31T09:27:07.721Z,3.15
2022-10-31T09:29:57.591Z,2.97
2022-10-31T09:32:44.854Z,2.83
2022-10-31T09:35:32.521Z,2.83
2022-10-31T09:38:21.843Z,3.05
2022-10-31T09:41:19.643Z,2.90
2022-10-31T09:44:20.787Z,2.97
2022-10-31T09:47:41.801Z,3.00
2022-10-31T09:51:27.133Z,2.65
2022-10-31T09:54:44.722Z,2.60
2022-10-31T09:57:35.834Z,2.60
2022-10-31T10:00:23.747Z,2.50
2022-10-31T10:03:25.410Z,2.58
2022-10-31T10:06:22.301Z,2.85
2022-10-31T10:09:34.937Z,2.70
2022-10-31T10:13:09.102Z,2.70
2022-10-31T10:16:35.539Z,2.67
2022-10-31T10:19:51.267Z,2.42
2022-10-31T10:22:47.287Z,2.72
2022-10-31T10:25:41.927Z,2.28
2022-10-31T10:28:39.703Z,2.45
2022-10-31T10:31:32.860Z,2.72
2022-10-31T10:34:45.426Z,2.60
2022-10-31T10:37:38.459Z,2.60
2022-10-31T10:40:30.606Z,2.83
2022-10-31T10:43:42.952Z,2.80
2022-10-31T10:47:02.460Z,2.45
2022-10-31T10:49:53.846Z,3.13
2022-10-31T10:52:54.200Z,2.42
2022-10-31T10:55:45.458Z,2.70
2022-10-31T10:58:32.686Z,2.50
2022-10-31T11:01:19.895Z,2.72
2022-10-31T11:04:26.819Z,2.90
2022-10-31T11:07:14.144Z,2.75
2022-10-31T11:10:17.240Z,3.00
2022-10-31T11:13:25.310Z,3.13
2022-10-31T11:16:16.116Z,2.45
2022-10-31T11:22:15.942Z,2.60
2022-10-31T11:25:21.647Z,3.10
2022-10-31T11:28:10.676Z,2.45
2022-10-31T11:31:00.334Z,2.30
2022-10-31T11:33:50.555Z,2.72
2022-10-31T11:36:40.476Z,2.47
2022-10-31T11:39:28.189Z,2.50
2022-10-31T11:42:15.676Z,2.70
2022-10-31T11:45:15.194Z,2.60
2022-10-31T11:48:04.403Z,2.83
2022-10-31T11:50:59.010Z,2.85
2022-10-31T11:53:56.857Z,2.40
2022-10-31T11:56:47.441Z,2.88
2022-10-31T11:59:35.080Z,3.60
2022-10-31T12:02:22.499Z,2.70
2022-10-31T12:05:19.546Z,2.55
2022-10-31T12:08:10.790Z,3.13
2022-10-31T12:11:32.031Z,2.88
2022-10-31T12:14:34.853Z,2.60
2022-10-31T12:17:38.294Z,3.08
2022-10-31T12:20:30.248Z,3.03
2022-10-31T12:23:38.972Z,3.00
2022-10-31T12:26:38.464Z,4.32
2022-10-31T12:29:41.510Z,3.25
2022-10-31T12:32:42.430Z,3.03
2022-10-31T12:38:47.640Z,3.15
2022-10-31T12:41:46.891Z,3.20
2022-10-31T12:45:08.805Z,2.88
2022-10-31T12:48:17.995Z,3.08
2022-10-31T12:51:11.447Z,3.35
2022-10-31T12:54:11.082Z,3.08
2022-10-31T12:57:04.204Z,3.38
2022-10-31T12:59:46.036Z,3.15
2022-10-31T13:03:04.593Z,2.90
2022-10-31T13:05:59.983Z,3.40
2022-10-31T13:09:00.966Z,3.53
2022-10-31T13:11:56.233Z,2.88
2022-10-31T13:14:49.658Z,3.38
2022-10-31T13:18:07.954Z,3.20
2022-10-31T13:20:56.820Z,3.85
2022-10-31T13:23:50.938Z,3.47
2022-10-31T13:26:47.153Z,3.15
2022-10-31T13:29:56.839Z,3.28
2022-10-31T13:32:47.340Z,3.65
2022-10-31T13:35:45.032Z,3.88
2022-10-31T13:38:42.563Z,3.60
2022-10-31T13:41:48.467Z,3.35
2022-10-31T13:44:39.942Z,3.38
2022-10-31T13:47:29.512Z,3.65
2022-10-31T13:50:19.980Z,4.13
2022-10-31T13:53:36.870Z,3.83
2022-10-31T13:56:27.700Z,3.90
2022-10-31T14:02:17.733Z,3.55
2022-10-31T14:05:19.795Z,3.80
2022-10-31T14:08:20.146Z,3.78
2022-10-31T14:11:10.078Z,4.28
2022-10-31T14:13:59.276Z,4.00
2022-10-31T14:16:49.888Z,4.18
2022-10-31T14:19:39.471Z,4.03
2022-10-31T14:22:31.686Z,3.60
2022-10-31T14:25:35.356Z,4.18
2022-10-31T14:28:33.732Z,3.80
2022-10-31T14:31:42.154Z,4.13
2022-10-31T14:34:34.583Z,3.75
2022-10-31T14:37:58.960Z,3.58
2022-10-31T14:41:04.674Z,3.65
2022-10-31T14:44:06.017Z,3.80
2022-10-31T14:47:37.593Z,3.47
2022-10-31T14:50:53.971Z,4.10
2022-10-31T14:53:48.558Z,4.63
2022-10-31T14:56:42.095Z,4.35
2022-10-31T14:59:36.203Z,4.13
2022-10-31T15:02:52.552Z,4.30
2022-10-31T15:05:56.593Z,3.85
2022-10-31T15:08:51.698Z,3.70
2022-10-31T15:11:39.508Z,3.80
2022-10-31T15:14:33.071Z,4.30
2022-10-31T15:17:21.891Z,3.70
2022-10-31T15:20:18.686Z,3.90
2022-10-31T15:23:06.898Z,4.20
2022-10-31T15:26:06.502Z,4.15
2022-10-31T15:29:13.342Z,4.28
2022-10-31T15:32:16.576Z,3.97
2022-10-31T15:35:10.550Z,4.43
2022-10-31T15:37:59.847Z,3.97
2022-10-31T15:41:02.535Z,4.55
2022-10-31T15:43:49.980Z,4.15
2022-10-31T15:46:37.179Z,4.95
2022-10-31T15:49:30.311Z,5.78
2022-10-31T15:52:30.199Z,6.88
2022-10-31T15:55:26.020Z,6.45
2022-10-31T15:58:17.020Z,5.10
2022-10-31T16:04:23.550Z,5.60
2022-10-31T16:07:22.669Z,5.82
2022-10-31T16:10:24.989Z,5.10
2022-10-31T16:13:12.069Z,5.35
2022-10-31T16:19:31.816Z,5.03
2022-10-31T16:22:26.455Z,6.07
2022-10-31T16:25:21.230Z,5.05
2022-10-31T16:28:17.337Z,6.60
2022-10-31T16:31:14.926Z,6.60
2022-10-31T16:34:21.202Z,6.88
2022-10-31T16:37:10.869Z,7.70
2022-10-31T16:39:58.140Z,7.03
2022-10-31T16:42:46.458Z,8.38
2022-10-31T16:45:34.161Z,6.93
2022-10-31T16:48:24.072Z,6.90
2022-10-31T16:51:11.138Z,8.48
2022-10-31T16:53:58.310Z,8.75
2022-10-31T16:56:45.597Z,8.77
2022-10-31T16:59:34.391Z,8.75
2022-10-31T17:02:21.830Z,9.45
2022-10-31T17:05:13.477Z,9.45
2022-10-31T17:08:00.791Z,10.25
2022-10-31T17:11:00.330Z,10.00
2022-10-31T17:13:47.635Z,11.80
2022-10-31T17:16:35.149Z,23.17
2022-10-31T17:19:22.355Z,41.33
2022-10-31T17:22:13.853Z,19.45
2022-10-31T17:25:00.923Z,18.27
2022-10-31T17:27:48.087Z,15.30
2022-10-31T17:30:36.673Z,15.75
2022-10-31T17:33:23.743Z,17.45
2022-10-31T17:36:10.785Z,17.08
2022-10-31T17:38:58.134Z,16.77
2022-10-31T17:41:46.683Z,16.17
2022-10-31T17:44:33.829Z,17.25
2022-10-31T17:47:20.872Z,21.50
2022-10-31T17:50:08.346Z,18.83
2022-10-31T17:52:55.512Z,17.42
2022-10-31T17:55:42.569Z,18.65
2022-10-31T17:58:30.127Z,18.70
2022-10-31T18:01:18.830Z,16.60
2022-10-31T18:04:07.939Z,16.67
2022-10-31T18:06:55.069Z,17.67
2022-10-31T18:09:42.232Z,19.77
2022-10-31T18:12:32.112Z,20.33
2022-10-31T18:15:20.362Z,17.70
2022-10-31T18:18:07.543Z,15.48
2022-10-31T18:20:57.965Z,14.18
2022-10-31T18:23:45.081Z,13.75
2022-10-31T18:26:32.683Z,17.23
2022-10-31T18:29:20.164Z,19.40
2022-10-31T18:32:09.494Z,19.08
2022-10-31T18:34:56.749Z,21.23
2022-10-31T18:37:43.841Z,21.45
2022-10-31T18:40:32.056Z,22.10
2022-10-31T18:43:19.101Z,22.23
2022-10-31T18:46:09.451Z,21.15
2022-10-31T18:48:56.783Z,21.02
2022-10-31T18:51:43.956Z,21.20
2022-10-31T18:54:31.054Z,22.00
2022-10-31T18:57:18.139Z,21.60
2022-10-31T19:00:06.562Z,21.60
2022-10-31T19:02:56.378Z,21.02
2022-10-31T19:05:44.069Z,20.30
2022-10-31T19:08:31.704Z,24.90
2022-10-31T19:11:18.871Z,25.45
2022-10-31T19:14:08.585Z,20.73
2022-10-31T19:16:58.312Z,18.98
2022-10-31T19:19:48.236Z,16.23
2022-10-31T19:22:35.262Z,14.77
2022-10-31T19:25:22.370Z,17.48
2022-10-31T19:28:09.659Z,20.40
2022-10-31T19:30:57.614Z,17.63
2022-10-31T19:33:45.693Z,17.65
2022-10-31T19:36:32.777Z,16.85
2022-10-31T19:39:19.823Z,18.38
2022-10-31T19:42:06.950Z,24.50
2022-10-31T19:44:54.064Z,15.65
2022-10-31T19:47:41.162Z,16.55
2022-10-31T19:50:29.699Z,17.20
2022-10-31T19:53:16.844Z,14.18
2022-10-31T19:56:04.478Z,14.25
2022-10-31T19:58:52.010Z,13.38
2022-10-31T20:01:39.231Z,11.20
2022-10-31T20:04:26.628Z,10.60
2022-10-31T20:07:13.854Z,10.68
2022-10-31T20:10:01.021Z,12.30
2022-10-31T20:12:48.953Z,12.00
2022-10-31T20:15:36.066Z,12.23
2022-10-31T20:21:19.118Z,11.30
2022-10-31T20:26:54.604Z,12.85
2022-10-31T20:29:41.712Z,12.27
2022-10-31T20:32:28.761Z,12.75
2022-10-31T20:35:16.034Z,12.35
2022-10-31T20:38:04.915Z,13.82
2022-10-31T20:40:52.083Z,16.05
2022-10-31T20:43:39.618Z,14.48
2022-10-31T20:46:27.202Z,13.43
2022-10-31T20:49:14.345Z,13.43
2022-10-31T20:52:01.418Z,12.70
2022-10-31T20:54:48.515Z,12.25
2022-10-31T20:57:35.683Z,13.55
2022-10-31T21:00:24.363Z,11.35
2022-10-31T21:03:11.511Z,13.75
2022-10-31T21:06:03.326Z,12.25
2022-10-31T21:08:51.313Z,12.50
2022-10-31T21:11:38.813Z,12.13
2022-10-31T21:14:25.909Z,11.77
2022-10-31T21:17:13.123Z,11.52
2022-10-31T21:20:00.511Z,10.75
2022-10-31T21:22:47.648Z,10.95
2022-10-31T21:25:38.959Z,11.65
2022-10-31T21:28:26.030Z,10.73
2022-10-31T21:31:15.394Z,10.68
2022-10-31T21:34:02.674Z,10.75
2022-10-31T21:36:49.716Z,10.63
2022-10-31T21:39:38.689Z,10.48
2022-10-31T21:42:25.794Z,10.18
2022-10-31T21:45:12.858Z,10.15
2022-10-31T21:47:59.983Z,10.38
2022-10-31T21:50:47.081Z,9.77
2022-10-31T21:53:52.859Z,9.75
2022-10-31T21:56:40.269Z,9.35
2022-10-31T21:59:27.945Z,9.05
2022-10-31T22:02:15.485Z,9.38
2022-10-31T22:05:03.195Z,9.00
2022-10-31T22:07:50.187Z,9.40
2022-10-31T22:10:37.267Z,8.13
2022-10-31T22:13:24.510Z,8.88
2022-10-31T22:16:20.063Z,7.95
2022-10-31T22:19:08.332Z,7.82
2022-10-31T22:21:55.508Z,8.05
2022-10-31T22:24:42.598Z,7.78
2022-10-31T22:27:29.735Z,8.75
2022-10-31T22:30:17.007Z,9.23
2022-10-31T22:33:04.754Z,8.32
2022-10-31T22:35:52.095Z,7.80
2022-10-31T22:38:40.763Z,7.90
2022-10-31T22:41:30.167Z,7.90
2022-10-31T22:44:17.330Z,7.60
2022-10-31T22:47:07.250Z,7.80
2022-10-31T22:49:54.393Z,7.47
2022-10-31T22:52:41.524Z,8.02
2022-10-31T22:55:29.106Z,7.88
2022-10-31T22:58:16.165Z,7.45
2022-10-31T23:01:11.668Z,6.85
2022-10-31T23:03:59.467Z,7.43
2022-10-31T23:06:46.735Z,8.05
2022-10-31T23:09:33.901Z,7.07
2022-10-31T23:12:39.545Z,7.03
2022-10-31T23:15:26.731Z,6.95
2022-10-31T23:18:23.876Z,7.55
2022-10-31T23:21:37.535Z,7.43
2022-10-31T23:24:45.037Z,7.30
2022-10-31T23:27:32.270Z,7.85
2022-10-31T23:30:19.716Z,6.95
2022-10-31T23:33:07.331Z,7.70
2022-10-31T23:35:54.550Z,7.20
2022-10-31T23:38:42.522Z,6.40
2022-10-31T23:41:29.548Z,6.78
2022-10-31T23:44:16.873Z,6.57
2022-10-31T23:47:04.799Z,6.68
2022-10-31T23:49:51.929Z,7.07
2022-10-31T23:52:39.072Z,7.60
2022-10-31T23:55:26.151Z,8.15
2022-10-31T23:58:13.266Z,7.03
